createdAt,value
2022-10-14T00:01:25.708Z,22.24
2022-10-14T00:03:55.961Z,22.27
2022-10-14T00:06:30.516Z,22.30
2022-10-14T00:09:02.394Z,22.32
2022-10-14T00:11:34.011Z,22.36
2022-10-14T00:14:05.996Z,22.39
2022-10-14T00:16:37.227Z,22.43
2022-10-14T00:19:06.882Z,22.48
2022-10-14T00:21:37.755Z,22.52
2022-10-14T00:24:07.067Z,22.57
2022-10-14T00:26:38.842Z,22.62
2022-10-14T00:29:10.493Z,22.66
2022-10-14T00:31:38.913Z,22.70
2022-10-14T00:34:07.330Z,22.74
2022-10-14T00:36:35.703Z,22.79
2022-10-14T00:39:04.055Z,22.84
2022-10-14T00:41:36.060Z,22.89
2022-10-14T00:44:16.146Z,22.94
2022-10-14T00:46:46.900Z,22.97
2022-10-14T00:49:30.309Z,23.02
2022-10-14T00:52:14.746Z,23.06
2022-10-14T00:54:47.355Z,23.10
2022-10-14T00:57:16.928Z,23.16
2022-10-14T00:59:45.442Z,23.20
2022-10-14T01:02:13.909Z,23.25
2022-10-14T01:04:45.748Z,23.30
2022-10-14T01:07:30.325Z,23.36
2022-10-14T01:10:21.998Z,23.40
2022-10-14T01:13:09.884Z,23.45
2022-10-14T01:15:44.351Z,23.51
2022-10-14T01:18:49.716Z,23.56
2022-10-14T01:21:34.425Z,23.60
2022-10-14T01:24:21.296Z,23.66
2022-10-14T01:27:30.920Z,23.72
2022-10-14T01:30:13.217Z,23.77
2022-10-14T01:33:16.143Z,23.81
2022-10-14T01:36:11.024Z,23.86
2022-10-14T01:38:48.306Z,23.93
2022-10-14T01:41:33.778Z,23.99
2022-10-14T01:44:07.668Z,24.04
2022-10-14T01:46:39.435Z,24.10
2022-10-14T01:49:21.378Z,24.16
2022-10-14T01:51:53.842Z,24.22
2022-10-14T01:54:36.281Z,24.31
2022-10-14T01:57:10.052Z,24.39
2022-10-14T01:59:41.645Z,24.47
2022-10-14T02:02:10.031Z,24.54
2022-10-14T02:04:38.699Z,24.58
2022-10-14T02:07:31.080Z,24.63
2022-10-14T02:10:02.201Z,24.69
2022-10-14T02:12:52.334Z,24.72
2022-10-14T02:15:26.895Z,24.77
2022-10-14T02:17:58.228Z,24.82
2022-10-14T02:20:41.137Z,24.90
2022-10-14T02:23:23.274Z,24.98
2022-10-14T02:25:52.597Z,25.03
2022-10-14T02:28:24.587Z,25.07
2022-10-14T02:30:58.802Z,25.15
2022-10-14T02:33:34.249Z,25.19
2022-10-14T02:36:04.983Z,25.21
2022-10-14T02:38:34.699Z,25.22
2022-10-14T02:41:08.807Z,25.29
2022-10-14T02:43:37.341Z,25.31
2022-10-14T02:46:06.725Z,25.37
2022-10-14T02:48:35.273Z,25.39
2022-10-14T02:51:03.703Z,25.46
2022-10-14T02:53:32.087Z,25.50
2022-10-14T02:56:00.458Z,25.56
2022-10-14T02:58:28.792Z,25.64
2022-10-14T03:00:57.380Z,25.68
2022-10-14T03:03:25.832Z,25.75
2022-10-14T03:05:54.196Z,25.80
2022-10-14T03:08:22.548Z,25.86
2022-10-14T03:10:50.986Z,25.93
2022-10-14T03:13:19.360Z,25.96
2022-10-14T03:15:51.651Z,26.02
2022-10-14T03:18:20.534Z,26.07
2022-10-14T03:20:49.243Z,26.12
2022-10-14T03:23:30.397Z,26.16
2022-10-14T03:25:58.830Z,26.22
2022-10-14T03:28:27.344Z,26.28
2022-10-14T03:30:55.775Z,26.32
2022-10-14T03:33:26.097Z,26.37
2022-10-14T03:35:55.124Z,26.42
2022-10-14T03:38:23.639Z,26.46
2022-10-14T03:40:52.141Z,26.51
2022-10-14T03:43:20.515Z,26.61
2022-10-14T03:45:48.978Z,26.68
2022-10-14T03:48:17.314Z,26.74
2022-10-14T03:50:45.757Z,26.77
2022-10-14T03:53:14.231Z,26.87
2022-10-14T03:55:42.667Z,26.91
2022-10-14T03:58:13.181Z,26.98
2022-10-14T04:00:41.724Z,27.05
2022-10-14T04:03:12.384Z,27.12
2022-10-14T04:05:40.877Z,27.21
2022-10-14T04:08:09.405Z,27.28
2022-10-14T04:10:38.020Z,27.35
2022-10-14T04:13:06.432Z,27.39
2022-10-14T04:15:36.865Z,27.44
2022-10-14T04:18:05.427Z,27.47
2022-10-14T04:20:34.444Z,27.52
2022-10-14T04:23:02.925Z,27.57
2022-10-14T04:25:31.350Z,27.62
2022-10-14T04:27:59.677Z,27.68
2022-10-14T04:30:28.077Z,27.69
2022-10-14T04:32:56.403Z,27.70
2022-10-14T04:35:24.786Z,27.73
2022-10-14T04:37:53.495Z,27.75
2022-10-14T04:40:26.600Z,27.76
2022-10-14T04:42:59.523Z,27.74
2022-10-14T04:45:28.016Z,27.77
2022-10-14T04:47:56.450Z,27.80
2022-10-14T04:50:25.045Z,27.82
2022-10-14T04:52:53.459Z,27.85
2022-10-14T04:55:21.844Z,27.85
2022-10-14T04:57:50.259Z,27.85
2022-10-14T05:00:18.945Z,27.88
2022-10-14T05:02:47.527Z,27.92
2022-10-14T05:05:16.193Z,27.95
2022-10-14T05:07:45.296Z,28.00
2022-10-14T05:10:13.765Z,28.06
2022-10-14T05:12:42.121Z,28.11
2022-10-14T05:15:11.071Z,28.14
2022-10-14T05:17:40.242Z,28.21
2022-10-14T05:20:09.134Z,28.28
2022-10-14T05:22:37.625Z,28.33
2022-10-14T05:25:06.681Z,28.38
2022-10-14T05:27:35.086Z,28.45
2022-10-14T05:30:03.757Z,28.49
2022-10-14T05:32:32.441Z,28.55
2022-10-14T05:35:00.783Z,28.60
2022-10-14T05:37:29.237Z,28.65
2022-10-14T05:39:57.645Z,28.70
2022-10-14T05:42:26.021Z,28.68
2022-10-14T05:44:54.552Z,28.71
2022-10-14T05:47:23.235Z,28.74
2022-10-14T05:49:51.693Z,28.76
2022-10-14T05:52:20.398Z,28.80
2022-10-14T05:54:49.129Z,28.83
2022-10-14T05:57:17.531Z,28.87
2022-10-14T05:59:45.955Z,28.87
2022-10-14T06:02:14.368Z,28.87
2022-10-14T06:04:43.483Z,28.89
2022-10-14T06:07:11.857Z,28.92
2022-10-14T06:09:40.653Z,28.96
2022-10-14T06:12:09.413Z,28.99
2022-10-14T06:14:39.547Z,29.03
2022-10-14T06:17:08.890Z,29.08
2022-10-14T06:19:37.384Z,29.12
2022-10-14T06:22:05.836Z,29.17
2022-10-14T06:24:34.256Z,29.18
2022-10-14T06:27:02.708Z,29.18
2022-10-14T06:29:38.576Z,29.20
2022-10-14T06:32:09.142Z,29.23
2022-10-14T06:34:37.953Z,29.23
2022-10-14T06:37:06.259Z,29.27
2022-10-14T06:39:34.657Z,29.27
2022-10-14T06:42:04.244Z,29.26
2022-10-14T06:44:32.609Z,29.24
2022-10-14T06:47:01.189Z,29.27
2022-10-14T06:49:29.631Z,29.29
2022-10-14T06:51:57.994Z,29.31
2022-10-14T06:54:26.417Z,29.35
2022-10-14T06:56:54.880Z,29.39
2022-10-14T06:59:23.352Z,29.40
2022-10-14T07:01:51.780Z,29.40
2022-10-14T07:04:20.190Z,29.42
2022-10-14T07:06:48.604Z,29.43
2022-10-14T07:09:16.942Z,29.42
2022-10-14T07:11:45.414Z,29.40
2022-10-14T07:14:13.878Z,29.36
2022-10-14T07:16:44.737Z,29.36
2022-10-14T07:19:13.565Z,29.35
2022-10-14T07:21:43.785Z,29.35
2022-10-14T07:24:15.857Z,29.35
2022-10-14T07:26:44.336Z,29.32
2022-10-14T07:29:21.139Z,29.32
2022-10-14T07:31:49.648Z,29.31
2022-10-14T07:34:18.123Z,29.31
2022-10-14T07:36:46.636Z,29.27
2022-10-14T07:39:15.217Z,29.23
2022-10-14T07:41:43.695Z,29.20
2022-10-14T07:44:14.868Z,29.16
2022-10-14T07:46:45.526Z,29.16
2022-10-14T07:49:19.879Z,29.17
2022-10-14T07:51:49.630Z,29.15
2022-10-14T07:54:24.272Z,29.17
2022-10-14T07:56:52.816Z,29.16
2022-10-14T07:59:22.439Z,29.17
2022-10-14T08:01:52.319Z,29.20
2022-10-14T08:04:21.666Z,29.21
2022-10-14T08:06:50.571Z,29.23
2022-10-14T08:09:20.080Z,29.26
2022-10-14T08:11:49.120Z,29.27
2022-10-14T08:14:18.026Z,29.26
2022-10-14T08:16:47.882Z,29.22
2022-10-14T08:19:16.483Z,29.19
2022-10-14T08:21:56.103Z,29.18
2022-10-14T08:24:24.501Z,29.14
2022-10-14T08:26:55.634Z,29.12
2022-10-14T08:29:24.329Z,29.10
2022-10-14T08:31:55.120Z,29.08
2022-10-14T08:34:25.316Z,29.04
2022-10-14T08:36:53.820Z,29.01
2022-10-14T08:39:23.016Z,28.98
2022-10-14T08:42:09.926Z,28.94
2022-10-14T08:44:57.332Z,28.90
2022-10-14T08:47:33.463Z,28.84
2022-10-14T08:50:22.793Z,28.79
2022-10-14T08:53:11.309Z,28.72
2022-10-14T08:55:47.823Z,28.67
2022-10-14T08:58:40.592Z,28.59
2022-10-14T09:01:36.161Z,28.48
2022-10-14T09:04:08.357Z,28.41
2022-10-14T09:06:42.104Z,28.29
2022-10-14T09:09:20.381Z,28.21
2022-10-14T09:11:55.655Z,28.11
2022-10-14T09:14:33.610Z,28.05
2022-10-14T09:17:10.301Z,27.98
2022-10-14T09:19:59.698Z,27.92
2022-10-14T09:22:29.377Z,27.86
2022-10-14T09:24:59.999Z,27.80
2022-10-14T09:27:30.653Z,27.76
2022-10-14T09:30:02.589Z,27.70
2022-10-14T09:32:41.836Z,27.62
2022-10-14T09:35:18.312Z,27.55
2022-10-14T09:37:46.806Z,27.50
2022-10-14T09:40:33.382Z,27.47
2022-10-14T09:43:12.105Z,27.40
2022-10-14T09:45:54.349Z,27.35
2022-10-14T09:48:54.263Z,27.31
2022-10-14T09:51:43.834Z,27.25
2022-10-14T09:57:24.294Z,27.13
2022-10-14T10:00:03.276Z,27.09
2022-10-14T10:02:44.511Z,27.03
2022-10-14T10:05:25.731Z,27.00
2022-10-14T10:08:18.309Z,26.93
2022-10-14T10:11:16.128Z,26.87
2022-10-14T10:13:49.171Z,26.82
2022-10-14T10:16:27.715Z,26.77
2022-10-14T10:18:58.226Z,26.74
2022-10-14T10:21:31.494Z,26.69
2022-10-14T10:24:02.417Z,26.65
2022-10-14T10:26:34.277Z,26.60
2022-10-14T10:29:06.022Z,26.55
2022-10-14T10:31:49.337Z,26.49
2022-10-14T10:34:29.685Z,26.44
2022-10-14T10:37:10.663Z,26.38
2022-10-14T10:40:07.778Z,26.33
2022-10-14T10:42:41.658Z,26.26
2022-10-14T10:45:24.974Z,26.17
2022-10-14T10:48:09.081Z,26.10
2022-10-14T10:50:58.463Z,26.02
2022-10-14T10:53:50.812Z,25.95
2022-10-14T10:56:47.942Z,25.85
2022-10-14T10:59:45.635Z,25.76
2022-10-14T11:02:14.684Z,25.69
2022-10-14T11:05:08.133Z,25.63
2022-10-14T11:08:06.615Z,25.55
2022-10-14T11:11:05.042Z,25.50
2022-10-14T11:13:44.090Z,25.42
2022-10-14T11:16:27.537Z,25.33
2022-10-14T11:19:25.449Z,25.29
2022-10-14T11:22:17.653Z,25.23
2022-10-14T11:25:30.282Z,25.18
2022-10-14T11:28:18.057Z,25.14
2022-10-14T11:30:50.315Z,25.12
2022-10-14T11:33:31.632Z,25.09
2022-10-14T11:36:17.088Z,25.07
2022-10-14T11:38:51.019Z,25.04
2022-10-14T11:41:55.053Z,25.00
2022-10-14T11:44:23.391Z,24.96
2022-10-14T11:46:57.459Z,24.93
2022-10-14T11:49:33.969Z,24.92
2022-10-14T11:52:08.681Z,24.91
2022-10-14T11:54:49.408Z,24.89
2022-10-14T11:57:31.098Z,24.87
2022-10-14T12:00:05.379Z,24.85
2022-10-14T12:03:01.474Z,24.84
2022-10-14T12:05:53.015Z,24.81
2022-10-14T12:08:33.225Z,24.78
2022-10-14T12:11:07.329Z,24.74
2022-10-14T12:13:59.394Z,24.71
2022-10-14T12:16:28.999Z,24.68
2022-10-14T12:18:59.231Z,24.65
2022-10-14T12:21:33.492Z,24.63
2022-10-14T12:24:09.121Z,24.61
2022-10-14T12:26:57.975Z,24.60
2022-10-14T12:29:33.983Z,24.58
2022-10-14T12:32:05.784Z,24.56
2022-10-14T12:34:41.179Z,24.54
2022-10-14T12:37:38.958Z,24.51
2022-10-14T12:40:07.939Z,24.48
2022-10-14T12:43:04.072Z,24.45
2022-10-14T12:45:36.405Z,24.44
2022-10-14T12:48:17.432Z,24.43
2022-10-14T12:50:47.840Z,24.43
2022-10-14T12:53:34.927Z,24.41
2022-10-14T12:56:06.136Z,24.40
2022-10-14T12:58:37.567Z,24.39
2022-10-14T13:01:24.444Z,24.38
2022-10-14T13:03:56.358Z,24.37
2022-10-14T13:06:43.443Z,24.35
2022-10-14T13:09:18.115Z,24.33
2022-10-14T13:12:06.589Z,24.31
2022-10-14T13:15:02.135Z,24.31
2022-10-14T13:17:49.731Z,24.26
2022-10-14T13:20:36.630Z,24.24
2022-10-14T13:23:23.765Z,24.20
2022-10-14T13:25:53.963Z,24.18
2022-10-14T13:28:40.148Z,24.17
2022-10-14T13:31:44.779Z,24.17
2022-10-14T13:34:35.880Z,24.16
2022-10-14T13:37:22.479Z,24.17
2022-10-14T13:39:50.881Z,24.17
2022-10-14T13:42:33.321Z,24.18
2022-10-14T13:45:17.756Z,24.18
2022-10-14T13:47:50.097Z,24.20
2022-10-14T13:50:23.697Z,24.20
2022-10-14T13:52:59.052Z,24.19
2022-10-14T13:55:28.501Z,24.20
2022-10-14T13:58:14.586Z,24.20
2022-10-14T14:00:50.097Z,24.22
2022-10-14T14:03:24.994Z,24.23
2022-10-14T14:05:54.677Z,24.24
2022-10-14T14:08:41.042Z,24.25
2022-10-14T14:11:16.789Z,24.26
2022-10-14T14:14:15.763Z,24.27
2022-10-14T14:16:56.699Z,24.27
2022-10-14T14:19:38.029Z,24.29
2022-10-14T14:22:20.835Z,24.29
2022-10-14T14:24:50.520Z,24.29
2022-10-14T14:27:25.080Z,24.29
2022-10-14T14:29:55.408Z,24.27
2022-10-14T14:32:31.943Z,24.29
2022-10-14T14:35:13.630Z,24.29
2022-10-14T14:37:55.529Z,24.29
2022-10-14T14:40:31.061Z,24.29
2022-10-14T14:43:04.949Z,24.30
2022-10-14T14:45:43.772Z,24.30
2022-10-14T14:48:16.679Z,24.29
2022-10-14T14:50:46.788Z,24.27
2022-10-14T14:53:30.710Z,24.26
2022-10-14T14:56:14.773Z,24.26
2022-10-14T14:58:51.644Z,24.24
2022-10-14T15:01:26.390Z,24.24
2022-10-14T15:04:12.714Z,24.22
2022-10-14T15:06:51.596Z,24.22
2022-10-14T15:09:32.037Z,24.21
2022-10-14T15:12:04.109Z,24.22
2022-10-14T15:14:48.643Z,24.23
2022-10-14T15:17:38.779Z,24.24
2022-10-14T15:20:07.238Z,24.25
2022-10-14T15:22:44.571Z,24.27
2022-10-14T15:25:14.355Z,24.29
2022-10-14T15:27:46.640Z,24.31
2022-10-14T15:30:23.686Z,24.31
2022-10-14T15:32:54.026Z,24.31
2022-10-14T15:35:23.942Z,24.32
2022-10-14T15:37:53.155Z,24.32
2022-10-14T15:40:24.700Z,24.32
2022-10-14T15:42:53.112Z,24.31
2022-10-14T15:45:22.808Z,24.32
2022-10-14T15:47:59.138Z,24.32
2022-10-14T15:50:28.029Z,24.33
2022-10-14T15:52:57.834Z,24.34
2022-10-14T15:55:35.122Z,24.35
2022-10-14T15:58:04.327Z,24.34
2022-10-14T16:00:33.429Z,24.33
2022-10-14T16:03:01.894Z,24.32
2022-10-14T16:05:30.872Z,24.32
2022-10-14T16:07:59.692Z,24.33
2022-10-14T16:10:29.444Z,24.34
2022-10-14T16:13:00.537Z,24.34
2022-10-14T16:15:47.612Z,24.31
2022-10-14T16:18:16.625Z,24.30
2022-10-14T16:20:45.491Z,24.29
2022-10-14T16:23:18.721Z,24.27
2022-10-14T16:25:50.176Z,24.26
2022-10-14T16:28:20.383Z,24.25
2022-10-14T16:30:50.329Z,24.23
2022-10-14T16:33:21.022Z,24.22
2022-10-14T16:35:55.463Z,24.20
2022-10-14T16:38:25.170Z,24.18
2022-10-14T16:40:58.167Z,24.17
2022-10-14T16:43:27.751Z,24.15
2022-10-14T16:46:00.790Z,24.15
2022-10-14T16:48:30.265Z,24.14
2022-10-14T16:50:58.650Z,24.12
2022-10-14T16:53:44.534Z,24.12
2022-10-14T16:56:40.317Z,24.12
2022-10-14T16:59:11.367Z,24.11
2022-10-14T17:01:41.007Z,24.09
2022-10-14T17:04:10.606Z,24.07
2022-10-14T17:06:39.028Z,24.05
2022-10-14T17:09:07.723Z,24.03
2022-10-14T17:11:36.257Z,24.02
2022-10-14T17:14:05.085Z,24.02
2022-10-14T17:16:33.465Z,24.03
2022-10-14T17:19:02.401Z,24.03
2022-10-14T17:21:30.885Z,24.02
2022-10-14T17:24:03.085Z,24.01
2022-10-14T17:26:33.282Z,24.01
2022-10-14T17:29:02.059Z,23.99
2022-10-14T17:31:31.573Z,24.00
2022-10-14T17:34:01.210Z,23.98
2022-10-14T17:36:31.763Z,23.97
2022-10-14T17:39:00.974Z,23.96
2022-10-14T17:41:31.471Z,23.98
2022-10-14T17:44:02.400Z,23.97
2022-10-14T17:46:32.433Z,23.98
2022-10-14T17:49:04.851Z,23.98
2022-10-14T17:51:33.990Z,23.98
2022-10-14T17:54:05.071Z,23.98
2022-10-14T17:56:35.556Z,23.97
2022-10-14T17:59:07.227Z,23.95
2022-10-14T18:01:37.874Z,23.95
2022-10-14T18:06:48.338Z,23.91
2022-10-14T18:09:16.846Z,23.88
2022-10-14T18:14:34.991Z,23.85
2022-10-14T18:17:03.696Z,23.85
2022-10-14T18:19:32.071Z,23.84
2022-10-14T18:22:00.545Z,23.84
2022-10-14T18:24:28.998Z,23.85
2022-10-14T18:26:57.314Z,23.86
2022-10-14T18:29:25.987Z,23.87
2022-10-14T18:31:54.302Z,23.89
2022-10-14T18:34:26.442Z,23.90
2022-10-14T18:36:55.207Z,23.93
2022-10-14T18:39:23.572Z,23.94
2022-10-14T18:41:51.874Z,23.94
2022-10-14T18:44:20.348Z,23.94
2022-10-14T18:46:48.774Z,23.93
2022-10-14T18:49:17.431Z,23.90
2022-10-14T18:51:46.739Z,23.89
2022-10-14T18:54:18.853Z,23.85
2022-10-14T18:56:48.716Z,23.85
2022-10-14T18:59:20.172Z,23.83
2022-10-14T19:01:53.971Z,23.82
2022-10-14T19:04:25.012Z,23.79
2022-10-14T19:06:53.546Z,23.79
2022-10-14T19:09:25.467Z,23.78
2022-10-14T19:11:54.331Z,23.77
2022-10-14T19:14:23.314Z,23.76
2022-10-14T19:16:51.805Z,23.72
2022-10-14T19:19:21.414Z,23.70
2022-10-14T19:21:52.065Z,23.68
2022-10-14T19:24:20.499Z,23.67
2022-10-14T19:26:49.747Z,23.64
2022-10-14T19:29:18.286Z,23.62
2022-10-14T19:31:46.990Z,23.60
2022-10-14T19:34:17.453Z,23.56
2022-10-14T19:36:46.936Z,23.55
2022-10-14T19:39:17.931Z,23.51
2022-10-14T19:41:48.272Z,23.48
2022-10-14T19:44:17.686Z,23.40
2022-10-14T19:46:46.931Z,23.34
2022-10-14T19:49:16.812Z,23.25
2022-10-14T19:51:45.298Z,23.16
2022-10-14T19:54:14.562Z,23.10
2022-10-14T19:56:43.184Z,23.03
2022-10-14T19:59:14.407Z,22.97
2022-10-14T20:01:43.104Z,22.90
2022-10-14T20:04:11.721Z,22.85
2022-10-14T20:06:41.100Z,22.78
2022-10-14T20:09:11.683Z,22.72
2022-10-14T20:11:40.047Z,22.67
2022-10-14T20:14:08.549Z,22.62
2022-10-14T20:16:36.924Z,22.58
2022-10-14T20:19:05.358Z,22.52
2022-10-14T20:21:33.733Z,22.48
2022-10-14T20:24:02.115Z,22.44
2022-10-14T20:26:30.512Z,22.39
2022-10-14T20:28:59.346Z,22.38
2022-10-14T20:31:27.784Z,22.33
2022-10-14T20:33:58.030Z,22.29
2022-10-14T20:36:26.477Z,22.27
2022-10-14T20:38:54.938Z,22.24
2022-10-14T20:41:26.912Z,22.23
2022-10-14T20:43:56.274Z,22.20
2022-10-14T20:46:26.047Z,22.18
2022-10-14T20:48:59.161Z,22.14
2022-10-14T20:51:28.223Z,22.09
2022-10-14T20:54:02.017Z,22.05
2022-10-14T20:56:35.657Z,22.00
2022-10-14T20:59:09.287Z,21.96
2022-10-14T21:01:38.611Z,21.90
2022-10-14T21:04:08.674Z,21.86
2022-10-14T21:06:39.590Z,21.82
2022-10-14T21:09:08.680Z,21.78
2022-10-14T21:11:37.085Z,21.75
2022-10-14T21:14:05.654Z,21.73
2022-10-14T21:16:36.310Z,21.69
2022-10-14T21:19:10.341Z,21.66
2022-10-14T21:21:43.122Z,21.64
2022-10-14T21:24:15.606Z,21.62
2022-10-14T21:26:44.279Z,21.58
2022-10-14T21:29:12.774Z,21.57
2022-10-14T21:31:41.748Z,21.53
2022-10-14T21:34:12.059Z,21.51
2022-10-14T21:36:41.422Z,21.49
2022-10-14T21:39:13.727Z,21.47
2022-10-14T21:41:43.638Z,21.44
2022-10-14T21:44:16.911Z,21.41
2022-10-14T21:46:45.375Z,21.41
2022-10-14T21:49:14.024Z,21.39
2022-10-14T21:51:42.974Z,21.36
2022-10-14T21:54:15.283Z,21.34
2022-10-14T21:56:43.728Z,21.33
2022-10-14T21:59:13.417Z,21.33
2022-10-14T22:01:42.935Z,21.30
2022-10-14T22:04:12.608Z,21.24
2022-10-14T22:06:41.143Z,21.21
2022-10-14T22:09:09.607Z,21.19
2022-10-14T22:11:40.718Z,21.17
2022-10-14T22:14:13.621Z,21.16
2022-10-14T22:16:42.248Z,21.14
2022-10-14T22:19:12.768Z,21.14
2022-10-14T22:21:42.971Z,21.13
2022-10-14T22:24:11.638Z,21.13
2022-10-14T22:26:41.488Z,21.10
2022-10-14T22:29:18.509Z,21.09
2022-10-14T22:31:47.994Z,21.07
2022-10-14T22:34:18.554Z,21.06
2022-10-14T22:36:47.174Z,21.06
2022-10-14T22:39:17.951Z,21.05
2022-10-14T22:41:46.283Z,21.04
2022-10-14T22:44:14.689Z,21.06
2022-10-14T22:46:43.082Z,21.05
2022-10-14T22:49:11.815Z,21.05
2022-10-14T22:51:41.619Z,21.06
2022-10-14T22:54:11.207Z,21.04
2022-10-14T22:56:40.478Z,21.03
2022-10-14T22:59:11.961Z,21.02
2022-10-14T23:01:42.763Z,21.01
2022-10-14T23:04:12.164Z,21.00
2022-10-14T23:06:44.469Z,21.01
2022-10-14T23:09:12.872Z,21.01
2022-10-14T23:11:41.466Z,20.99
2022-10-14T23:14:09.950Z,20.99
2022-10-14T23:16:39.961Z,20.97
2022-10-14T23:19:08.316Z,20.97
2022-10-14T23:21:38.720Z,20.96
2022-10-14T23:24:09.520Z,20.98
2022-10-14T23:26:38.255Z,20.97
2022-10-14T23:29:12.489Z,20.97
2022-10-14T23:31:41.814Z,20.98
2022-10-14T23:34:14.083Z,20.99
2022-10-14T23:36:43.300Z,21.00
2022-10-14T23:39:12.019Z,21.03
2022-10-14T23:41:40.584Z,21.04
2022-10-14T23:44:09.149Z,21.06
2022-10-14T23:46:37.663Z,21.08
2022-10-14T23:49:21.195Z,21.10
2022-10-14T23:51:53.800Z,21.11
2022-10-14T23:54:22.354Z,21.11
2022-10-14T23:56:50.757Z,21.11
2022-10-14T23:59:19.280Z,21.09
